createdAt,value
2023-08-08T00:00:47.741Z,100178.22
2023-08-08T00:03:14.569Z,100170.94
2023-08-08T00:05:42.665Z,100177.38
2023-08-08T00:08:09.256Z,100177.38
2023-08-08T00:10:35.835Z,100174.69
2023-08-08T00:13:02.519Z,100175.75
2023-08-08T00:15:29.181Z,100178.47
2023-08-08T00:17:55.797Z,100175.75
2023-08-08T00:20:22.520Z,100169.72
2023-08-08T00:22:50.571Z,100159.84
2023-08-08T00:25:17.144Z,100176.19
2023-08-08T00:27:45.530Z,100159.06
2023-08-08T00:30:13.045Z,100159.00
2023-08-08T00:32:39.617Z,100173.72
2023-08-08T00:35:07.120Z,100171.03
2023-08-08T00:37:33.657Z,100157.69
2023-08-08T00:40:03.129Z,100169.13
2023-08-08T00:42:29.912Z,100169.41
2023-08-08T00:44:56.574Z,100170.22
2023-08-08T00:47:23.238Z,100159.50
2023-08-08T00:49:49.874Z,100154.88
2023-08-08T00:52:16.664Z,100167.59
2023-08-08T00:54:43.421Z,100172.38
2023-08-08T00:57:11.654Z,100170.69
2023-08-08T00:59:38.179Z,100175.31
2023-08-08T01:02:05.390Z,100164.59
2023-08-08T01:04:32.031Z,100168.44
2023-08-08T01:07:06.525Z,100161.94
2023-08-08T01:09:39.927Z,100148.59
2023-08-08T01:12:09.061Z,100150.25
2023-08-08T01:14:37.929Z,100159.28
2023-08-08T01:17:06.237Z,100149.53
2023-08-08T01:19:35.977Z,100148.72
2023-08-08T01:22:07.382Z,100149.69
2023-08-08T01:24:35.905Z,100146.28
2023-08-08T01:27:02.594Z,100144.53
2023-08-08T01:29:29.369Z,100140.13
2023-08-08T01:31:56.269Z,100139.75
2023-08-08T01:34:23.609Z,100142.25
2023-08-08T01:36:58.367Z,100147.66
2023-08-08T01:39:28.421Z,100154.09
2023-08-08T01:41:57.611Z,100154.81
2023-08-08T01:44:25.728Z,100155.00
2023-08-08T01:46:53.381Z,100150.63
2023-08-08T01:49:22.455Z,100131.97
2023-08-08T01:51:49.574Z,100128.28
2023-08-08T01:54:16.402Z,100147.84
2023-08-08T01:56:42.996Z,100136.59
2023-08-08T01:59:11.005Z,100130.91
2023-08-08T02:01:38.535Z,100134.53
2023-08-08T02:04:05.988Z,100142.69
2023-08-08T02:06:32.912Z,100126.66
2023-08-08T02:08:59.843Z,100137.16
2023-08-08T02:11:26.619Z,100121.22
2023-08-08T02:13:53.997Z,100128.38
2023-08-08T02:16:21.981Z,100114.97
2023-08-08T02:18:48.694Z,100122.13
2023-08-08T02:21:15.234Z,100113.22
2023-08-08T02:23:41.801Z,100109.53
2023-08-08T02:26:08.403Z,100112.13
2023-08-08T02:28:35.051Z,100116.53
2023-08-08T02:31:01.690Z,100108.16
2023-08-08T02:33:29.619Z,100111.69
2023-08-08T02:35:56.174Z,100094.06
2023-08-08T02:38:22.809Z,100096.69
2023-08-08T02:40:49.318Z,100116.03
2023-08-08T02:43:16.814Z,100107.13
2023-08-08T02:45:43.593Z,100105.34
2023-08-08T02:48:10.163Z,100112.50
2023-08-08T02:50:39.241Z,100105.66
2023-08-08T02:53:06.832Z,100113.38
2023-08-08T02:55:38.282Z,100113.44
2023-08-08T02:58:05.161Z,100111.53
2023-08-08T03:00:32.500Z,100101.91
2023-08-08T03:03:00.381Z,100113.44
2023-08-08T03:05:27.218Z,100110.06
2023-08-08T03:07:55.598Z,100097.88
2023-08-08T03:10:23.892Z,100112.88
2023-08-08T03:12:50.578Z,100119.13
2023-08-08T03:15:17.806Z,100113.88
2023-08-08T03:17:44.903Z,100115.28
2023-08-08T03:20:12.647Z,100108.44
2023-08-08T03:22:39.748Z,100118.09
2023-08-08T03:25:09.597Z,100125.34
2023-08-08T03:27:36.270Z,100119.84
2023-08-08T03:30:03.315Z,100113.88
2023-08-08T03:32:36.222Z,100126.09
2023-08-08T03:35:02.836Z,100117.41
2023-08-08T03:37:29.613Z,100115.28
2023-08-08T03:39:56.393Z,100109.94
2023-08-08T03:42:25.327Z,100108.75
2023-08-08T03:44:51.924Z,100094.94
2023-08-08T03:47:20.233Z,100124.63
2023-08-08T03:49:47.832Z,100120.72
2023-08-08T03:52:14.719Z,100124.19
2023-08-08T03:54:41.550Z,100107.22
2023-08-08T03:57:08.259Z,100124.97
2023-08-08T03:59:36.625Z,100113.38
2023-08-08T04:02:03.864Z,100103.38
2023-08-08T04:04:30.832Z,100112.19
2023-08-08T04:06:58.621Z,100094.13
2023-08-08T04:09:25.138Z,100094.78
2023-08-08T04:11:51.645Z,100101.53
2023-08-08T04:14:18.257Z,100103.16
2023-08-08T04:16:46.194Z,100097.63
2023-08-08T04:19:12.749Z,100102.88
2023-08-08T04:21:39.395Z,100099.16
2023-08-08T04:24:06.414Z,100083.88
2023-08-08T04:26:38.396Z,100090.53
2023-08-08T04:29:04.935Z,100104.00
2023-08-08T04:31:31.540Z,100097.16
2023-08-08T04:34:01.959Z,100098.97
2023-08-08T04:36:29.710Z,100082.75
2023-08-08T04:38:56.494Z,100088.00
2023-08-08T04:41:25.037Z,100083.63
2023-08-08T04:43:51.690Z,100087.06
2023-08-08T04:46:19.262Z,100083.56
2023-08-08T04:48:45.824Z,100095.06
2023-08-08T04:51:16.732Z,100094.25
2023-08-08T04:53:43.261Z,100101.19
2023-08-08T04:56:09.814Z,100085.00
2023-08-08T04:58:36.413Z,100095.72
2023-08-08T05:01:03.137Z,100101.97
2023-08-08T05:03:29.805Z,100079.53
2023-08-08T05:05:56.498Z,100081.47
2023-08-08T05:08:24.468Z,100093.88
2023-08-08T05:10:51.037Z,100100.69
2023-08-08T05:13:17.603Z,100099.72
2023-08-08T05:15:44.149Z,100087.25
2023-08-08T05:18:10.729Z,100083.56
2023-08-08T05:20:37.278Z,100076.78
2023-08-08T05:23:04.123Z,100100.97
2023-08-08T05:25:32.042Z,100102.78
2023-08-08T05:27:58.610Z,100085.75
2023-08-08T05:30:25.208Z,100085.38
2023-08-08T05:32:52.162Z,100078.38
2023-08-08T05:35:18.709Z,100080.94
2023-08-08T05:37:45.424Z,100081.53
2023-08-08T05:40:12.300Z,100077.31
2023-08-08T05:42:40.416Z,100076.72
2023-08-08T05:45:08.364Z,100080.25
2023-08-08T05:47:35.213Z,100085.47
2023-08-08T05:50:01.915Z,100082.97
2023-08-08T05:52:28.785Z,100073.69
2023-08-08T05:54:55.360Z,100071.63
2023-08-08T05:57:21.960Z,100078.63
2023-08-08T05:59:50.156Z,100092.25
2023-08-08T06:02:18.666Z,100095.75
2023-08-08T06:04:45.157Z,100090.31
2023-08-08T06:07:11.985Z,100093.69
2023-08-08T06:09:38.810Z,100106.91
2023-08-08T06:12:06.625Z,100109.44
2023-08-08T06:14:33.328Z,100101.03
2023-08-08T06:17:01.222Z,100093.09
2023-08-08T06:19:27.791Z,100086.81
2023-08-08T06:21:54.460Z,100080.38
2023-08-08T06:24:21.081Z,100084.00
2023-08-08T06:26:47.697Z,100095.59
2023-08-08T06:29:14.465Z,100092.88
2023-08-08T06:31:41.191Z,100085.16
2023-08-08T06:34:09.636Z,100078.78
2023-08-08T06:36:36.402Z,100091.41
2023-08-08T06:39:03.144Z,100080.44
2023-08-08T06:41:29.795Z,100083.84
2023-08-08T06:43:56.451Z,100083.53
2023-08-08T06:46:23.200Z,100073.94
2023-08-08T06:48:49.823Z,100089.16
2023-08-08T06:51:17.802Z,100096.03
2023-08-08T06:53:44.372Z,100076.88
2023-08-08T06:56:11.115Z,100104.19
2023-08-08T06:58:37.735Z,100103.03
2023-08-08T07:01:07.600Z,100091.94
2023-08-08T07:03:40.940Z,100076.94
2023-08-08T07:06:22.217Z,100085.75
2023-08-08T07:08:52.187Z,100094.19
2023-08-08T07:11:24.204Z,100089.47
2023-08-08T07:14:02.552Z,100087.69
2023-08-08T07:16:31.967Z,100063.34
2023-08-08T07:19:00.446Z,100087.00
2023-08-08T07:21:27.581Z,100093.84
2023-08-08T07:23:58.256Z,100079.38
2023-08-08T07:26:27.092Z,100099.97
2023-08-08T07:29:10.195Z,100084.84
2023-08-08T07:34:40.945Z,100108.59
2023-08-08T07:37:27.367Z,100078.50
2023-08-08T07:40:23.931Z,100085.19
2023-08-08T07:43:16.257Z,100087.44
2023-08-08T07:45:52.250Z,100070.91
2023-08-08T07:48:24.893Z,100090.91
2023-08-08T07:51:12.125Z,100078.13
2023-08-08T08:51:25.501Z,100097.91
2023-08-08T08:53:53.154Z,100098.50
2023-08-08T08:56:21.086Z,100088.91
2023-08-08T08:58:48.079Z,100096.53
2023-08-08T09:01:20.983Z,100089.06
2023-08-08T09:03:51.391Z,100099.31
2023-08-08T09:06:23.155Z,100096.31
2023-08-08T09:09:00.201Z,100099.66
2023-08-08T09:11:34.016Z,100097.38
2023-08-08T09:14:04.471Z,100090.72
2023-08-08T09:16:37.453Z,100091.22
2023-08-08T09:19:04.609Z,100094.56
2023-08-08T09:21:34.095Z,100090.69
2023-08-08T09:24:15.747Z,100088.56
2023-08-08T09:26:42.971Z,100091.56
2023-08-08T09:29:11.717Z,100079.78
2023-08-08T09:31:38.585Z,100079.38
2023-08-08T09:34:05.921Z,100080.44
2023-08-08T09:36:34.491Z,100084.59
2023-08-08T09:39:03.420Z,100076.09
2023-08-08T09:41:31.274Z,100050.59
2023-08-08T09:44:00.416Z,100062.88
2023-08-08T09:46:31.863Z,100069.13
2023-08-08T09:49:07.252Z,100055.78
2023-08-08T09:51:34.305Z,100045.22
2023-08-08T09:54:04.065Z,100057.59
2023-08-08T09:56:32.027Z,100035.69
2023-08-08T09:59:00.412Z,100040.84
2023-08-08T10:01:32.692Z,100059.84
2023-08-08T10:04:04.703Z,100048.97
2023-08-08T10:06:31.680Z,100046.22
2023-08-08T10:08:59.451Z,100039.50
2023-08-08T10:11:29.097Z,100048.72
2023-08-08T10:13:58.649Z,100044.38
2023-08-08T10:16:28.254Z,100035.38
2023-08-08T10:18:59.981Z,100056.47
2023-08-08T10:21:36.506Z,100047.25
2023-08-08T10:24:11.917Z,100052.22
2023-08-08T10:26:55.848Z,100048.19
2023-08-08T10:29:27.556Z,100052.47
2023-08-08T10:31:59.413Z,100031.81
2023-08-08T10:34:37.412Z,100029.22
2023-08-08T10:37:12.639Z,100036.63
2023-08-08T10:39:52.135Z,100041.41
2023-08-08T10:42:24.785Z,100053.28
2023-08-08T10:44:55.580Z,100046.09
2023-08-08T10:47:32.812Z,100049.75
2023-08-08T10:50:11.901Z,100040.84
2023-08-08T10:52:57.039Z,100048.06
2023-08-08T10:55:25.881Z,100049.22
2023-08-08T10:58:04.302Z,100038.56
2023-08-08T11:00:33.105Z,100039.00
2023-08-08T11:03:01.161Z,100029.56
2023-08-08T11:05:33.020Z,100031.50
2023-08-08T11:08:00.962Z,100027.66
2023-08-08T11:10:33.529Z,100019.84
2023-08-08T11:13:11.391Z,100018.50
2023-08-08T11:15:40.142Z,100005.19
2023-08-08T11:18:12.476Z,100006.44
2023-08-08T11:20:40.944Z,99994.78
2023-08-08T11:23:08.343Z,99985.94
2023-08-08T11:25:35.359Z,99990.69
2023-08-08T11:28:07.008Z,99979.03
2023-08-08T11:30:40.520Z,99975.22
2023-08-08T11:35:46.551Z,99982.94
2023-08-08T11:38:17.362Z,99980.50
2023-08-08T11:40:44.734Z,99991.66
2023-08-08T11:43:14.881Z,99968.56
2023-08-08T11:45:41.641Z,99958.94
2023-08-08T11:48:09.583Z,99959.72
2023-08-08T11:50:38.354Z,99953.75
2023-08-08T11:53:06.250Z,99959.25
2023-08-08T11:55:34.998Z,99969.88
2023-08-08T11:58:13.489Z,99983.91
2023-08-08T12:00:44.292Z,99966.25
2023-08-08T12:03:16.085Z,99965.25
2023-08-08T12:05:49.061Z,99956.22
2023-08-08T12:08:18.750Z,99954.41
2023-08-08T12:10:54.035Z,99956.19
2023-08-08T12:13:26.638Z,99947.31
2023-08-08T12:15:56.511Z,99943.41
2023-08-08T12:18:27.671Z,99934.22
2023-08-08T12:20:57.475Z,99948.25
2023-08-08T12:23:24.176Z,99942.53
2023-08-08T12:25:55.192Z,99933.16
2023-08-08T12:28:29.074Z,99936.88
2023-08-08T12:30:57.573Z,99932.00
2023-08-08T12:33:29.678Z,99942.47
2023-08-08T12:35:59.313Z,99921.09
2023-08-08T12:38:33.112Z,99899.84
2023-08-08T12:41:04.226Z,99925.91
2023-08-08T12:43:33.004Z,99919.72
2023-08-08T12:46:06.946Z,99926.81
2023-08-08T12:48:36.874Z,99925.16
2023-08-08T12:51:18.374Z,99914.00
2023-08-08T12:53:47.613Z,99924.25
2023-08-08T12:56:18.375Z,99913.31
2023-08-08T12:58:53.349Z,99915.78
2023-08-08T13:01:24.264Z,99904.25
2023-08-08T13:04:09.266Z,99925.00
2023-08-08T13:06:37.639Z,99921.97
2023-08-08T13:09:09.045Z,99915.03
2023-08-08T13:11:41.209Z,99927.31
2023-08-08T13:14:09.837Z,99929.84
2023-08-08T13:16:44.774Z,99913.63
2023-08-08T13:19:17.520Z,99920.88
2023-08-08T13:21:53.647Z,99915.03
2023-08-08T13:24:26.915Z,99917.28
2023-08-08T13:26:59.252Z,99901.81
2023-08-08T13:29:27.946Z,99907.25
2023-08-08T13:32:05.179Z,99888.84
2023-08-08T13:34:33.208Z,99897.25
2023-08-08T13:37:00.248Z,99915.94
2023-08-08T13:39:28.621Z,99915.94
2023-08-08T13:41:55.345Z,99911.06
2023-08-08T13:44:22.112Z,99913.53
2023-08-08T13:46:56.822Z,99902.06
2023-08-08T13:49:27.834Z,99897.91
2023-08-08T13:51:55.134Z,99897.19
2023-08-08T14:00:35.474Z,99885.03
2023-08-08T14:03:06.138Z,99897.31
2023-08-08T14:08:44.665Z,99916.28
2023-08-08T15:04:01.705Z,100035.94
2023-08-08T15:07:39.637Z,100015.31
2023-08-08T15:23:31.620Z,100025.59
2023-08-08T15:26:45.908Z,100019.03
2023-08-08T15:29:29.781Z,99994.25
2023-08-08T15:33:01.885Z,99995.13
2023-08-08T15:39:27.522Z,100030.25
2023-08-08T15:53:42.834Z,100012.69
2023-08-08T15:59:44.234Z,100029.06
2023-08-08T16:06:36.225Z,100019.09
2023-08-08T16:20:41.818Z,100030.63
2023-08-08T16:23:51.000Z,100027.88
2023-08-08T16:27:06.362Z,100009.63
2023-08-08T16:32:52.733Z,100021.44
2023-08-08T16:35:45.329Z,100019.03
2023-08-08T16:38:47.224Z,100004.66
2023-08-08T16:45:20.847Z,99999.72
2023-08-08T16:47:53.774Z,100011.34
2023-08-08T16:53:38.511Z,100014.31
2023-08-08T16:56:13.379Z,100017.94
2023-08-08T16:58:52.339Z,100023.91
2023-08-08T17:01:42.968Z,100018.44
2023-08-08T17:07:03.345Z,99985.66
2023-08-08T17:09:37.438Z,100005.72
2023-08-08T17:12:20.797Z,100022.53
2023-08-08T17:18:08.320Z,100010.03
2023-08-08T17:23:24.054Z,100009.50
2023-08-08T17:25:55.888Z,100019.47
2023-08-08T17:35:32.179Z,100025.41
2023-08-08T17:38:11.042Z,100012.44
2023-08-08T17:41:26.337Z,99996.84
2023-08-08T17:44:20.535Z,100016.81
2023-08-08T17:50:34.084Z,100004.53
2023-08-08T17:57:10.186Z,100014.59
2023-08-08T17:59:38.798Z,100013.25
2023-08-08T18:02:32.089Z,100012.88
2023-08-08T18:05:05.207Z,100029.19
2023-08-08T18:07:36.240Z,100028.34
2023-08-08T18:10:23.944Z,100031.19
2023-08-08T18:13:17.741Z,100028.34
2023-08-08T18:15:53.766Z,100028.28
2023-08-08T18:18:28.204Z,100006.13
2023-08-08T18:20:55.233Z,100044.72
2023-08-08T18:23:31.167Z,100023.22
2023-08-08T18:26:03.257Z,100035.19
2023-08-08T18:28:30.325Z,100026.19
2023-08-08T18:31:04.439Z,100026.28
2023-08-08T18:33:37.223Z,100027.47
2023-08-08T18:36:07.510Z,100038.59
2023-08-08T18:38:35.782Z,100032.88
2023-08-08T18:41:08.892Z,100049.19
2023-08-08T18:43:44.258Z,100048.41
2023-08-08T18:46:20.188Z,100053.88
2023-08-08T18:48:55.870Z,100034.56
2023-08-08T18:51:22.693Z,100032.53
2023-08-08T18:53:56.363Z,100037.13
2023-08-08T18:56:26.264Z,100058.50
2023-08-08T18:58:55.738Z,100036.72
2023-08-08T19:01:23.640Z,100047.16
2023-08-08T19:03:50.490Z,100057.94
2023-08-08T19:06:17.458Z,100057.94
2023-08-08T19:08:44.209Z,100047.00
2023-08-08T19:11:10.900Z,100060.94
2023-08-08T19:13:37.431Z,100075.69
2023-08-08T19:16:04.263Z,100062.31
2023-08-08T19:18:32.354Z,100084.38
2023-08-08T19:20:59.033Z,100070.72
2023-08-08T19:23:25.597Z,100083.59
2023-08-08T19:25:52.344Z,100080.09
2023-08-08T19:28:18.898Z,100070.44
2023-08-08T19:30:45.500Z,100072.38
2023-08-08T19:33:12.105Z,100075.41
2023-08-08T19:35:40.083Z,100070.31
2023-08-08T19:38:06.624Z,100074.22
2023-08-08T19:40:35.480Z,100063.88
2023-08-08T19:43:02.070Z,100080.06
2023-08-08T19:45:28.660Z,100084.72
2023-08-08T19:47:55.284Z,100071.66
2023-08-08T19:50:22.138Z,100073.78
2023-08-08T19:52:50.076Z,100086.28
2023-08-08T19:55:17.168Z,100064.28
2023-08-08T19:57:47.427Z,100078.91
2023-08-08T20:00:24.827Z,100082.41
2023-08-08T20:02:54.288Z,100075.78
2023-08-08T20:05:23.076Z,100083.88
2023-08-08T20:07:58.337Z,100075.25
2023-08-08T20:10:36.214Z,100075.25
2023-08-08T20:13:13.336Z,100085.41
2023-08-08T20:15:42.860Z,100077.56
2023-08-08T20:18:13.370Z,100076.97
2023-08-08T20:20:51.616Z,100078.47
2023-08-08T20:23:26.626Z,100083.22
2023-08-08T20:26:01.108Z,100078.81
2023-08-08T20:28:31.353Z,100065.63
2023-08-08T20:31:09.782Z,100089.06
2023-08-08T20:33:43.218Z,100076.34
2023-08-08T20:36:29.742Z,100073.03
2023-08-08T20:39:07.049Z,100083.06
2023-08-08T20:41:38.721Z,100072.50
2023-08-08T20:44:14.785Z,100075.34
2023-08-08T20:46:45.598Z,100088.63
2023-08-08T20:49:12.355Z,100083.28
2023-08-08T20:51:44.246Z,100063.72
2023-08-08T20:54:17.444Z,100088.00
2023-08-08T20:56:56.112Z,100095.25
2023-08-08T20:59:28.481Z,100086.06
2023-08-08T21:02:00.619Z,100091.38
2023-08-08T21:04:35.251Z,100084.59
2023-08-08T21:07:23.113Z,100097.88
2023-08-08T21:10:17.188Z,100090.66
2023-08-08T21:12:50.080Z,100092.63
2023-08-08T21:15:28.923Z,100081.16
2023-08-08T21:18:26.976Z,100075.81
2023-08-08T21:21:12.874Z,100090.16
2023-08-08T21:23:46.890Z,100081.25
2023-08-08T21:26:26.246Z,100079.59
2023-08-08T21:29:01.206Z,100095.75
2023-08-08T21:31:34.245Z,100100.28
2023-08-08T21:34:10.044Z,100098.09
2023-08-08T21:36:41.427Z,100094.56
2023-08-08T21:39:10.909Z,100090.63
2023-08-08T21:41:48.729Z,100086.47
2023-08-08T21:44:19.389Z,100098.25
2023-08-08T21:46:56.855Z,100090.06
2023-08-08T21:49:42.424Z,100107.50
2023-08-08T21:52:19.589Z,100103.19
2023-08-08T21:54:46.335Z,100113.31
2023-08-08T21:57:16.860Z,100094.59
2023-08-08T21:59:47.666Z,100093.13
2023-08-08T22:02:41.864Z,100099.06
2023-08-08T22:05:28.395Z,100100.50
2023-08-08T22:08:12.587Z,100101.31
2023-08-08T22:10:43.814Z,100099.63
2023-08-08T22:13:17.415Z,100109.38
2023-08-08T22:15:50.225Z,100103.03
2023-08-08T22:18:24.402Z,100105.88
2023-08-08T22:21:02.520Z,100112.00
2023-08-08T22:23:36.117Z,100118.16
2023-08-08T22:26:13.973Z,100112.09
2023-08-08T22:28:57.946Z,100113.09
2023-08-08T22:32:14.349Z,100111.25
2023-08-08T22:35:06.886Z,100110.38
2023-08-08T22:37:41.883Z,100107.91
2023-08-08T22:40:10.459Z,100107.91
2023-08-08T22:42:41.457Z,100102.78
2023-08-08T22:45:17.660Z,100125.16
2023-08-08T22:47:52.213Z,100105.84
2023-08-08T22:50:28.138Z,100124.50
2023-08-08T22:53:07.319Z,100107.00
2023-08-08T22:56:01.180Z,100125.50
2023-08-08T22:58:30.169Z,100122.84
2023-08-08T23:01:09.922Z,100116.50
2023-08-08T23:03:46.054Z,100109.47
2023-08-08T23:06:26.589Z,100114.78
2023-08-08T23:09:00.915Z,100103.31
2023-08-08T23:11:45.056Z,100099.25
2023-08-08T23:14:30.006Z,100081.31
2023-08-08T23:17:00.871Z,100090.28
2023-08-08T23:19:52.887Z,100088.69
2023-08-08T23:22:24.110Z,100079.72
2023-08-08T23:24:54.723Z,100095.59
2023-08-08T23:27:36.101Z,100089.44
2023-08-08T23:30:08.273Z,100089.59
2023-08-08T23:32:46.641Z,100083.25
2023-08-08T23:35:31.998Z,100084.38
2023-08-08T23:38:03.305Z,100103.13
2023-08-08T23:40:34.746Z,100092.06
2023-08-08T23:43:04.432Z,100083.09
2023-08-08T23:45:42.824Z,100084.69
2023-08-08T23:48:20.935Z,100073.94
2023-08-08T23:50:51.990Z,100079.03
2023-08-08T23:53:28.874Z,100079.03
2023-08-08T23:56:11.951Z,100065.59
2023-08-08T23:58:43.820Z,100072.53
